Time;durP1;ratioP1;P1;durP2;ratioP2;P2;SDS_P1;SDS_P2;PMS_P1;PMS_P2;Temp;Humidity;BMP_temperature;BMP_pressure;BME280_temperature;BME280_humidity;BME280_pressure;Samples;Min_cycle;Max_cycle;Signal;HPM_P1;HPM_P2
2022/04/30 00:01:10;;;;;;;9.10;7.90;;;;;;;9.20;61.38;102770.09;5031190;28;20025;-63
2022/04/30 00:03:38;;;;;;;15.07;7.78;;;;;;;9.09;61.42;102767.75;5031486;28;20041;-63
2022/04/30 00:06:04;;;;;;;11.88;8.10;;;;;;;9.09;61.84;102766.88;5030931;28;20059;-63
2022/04/30 00:08:33;;;;;;;11.23;7.78;;;;;;;9.09;61.64;102765.09;5047455;28;20491;-63
2022/04/30 00:10:59;;;;;;;12.07;8.20;;;;;;;9.00;61.66;102765.34;5030808;28;20030;-63
2022/04/30 00:13:24;;;;;;;10.63;7.55;;;;;;;9.02;61.70;102758.19;5047502;28;20026;-63
2022/04/30 00:15:50;;;;;;;8.50;7.60;;;;;;;9.00;62.29;102760.03;5031459;28;20048;-63
2022/04/30 00:18:16;;;;;;;7.72;6.95;;;;;;;8.89;62.20;102762.06;5031713;28;20476;-63
2022/04/30 00:20:47;;;;;;;11.73;7.43;;;;;;;8.87;62.42;102767.41;5029858;28;20029;-63
2022/04/30 00:23:20;;;;;;;11.05;6.95;;;;;;;8.83;62.26;102762.22;5031987;28;20029;-63
2022/04/30 00:25:54;;;;;;;9.60;7.30;;;;;;;8.79;62.32;102769.38;5031544;28;20021;-63
2022/04/30 00:28:21;;;;;;;10.27;7.80;;;;;;;8.69;62.97;102767.88;5031829;28;20034;-63
2022/04/30 00:30:47;;;;;;;9.50;6.90;;;;;;;8.74;62.82;102765.13;5031594;28;20025;-63
2022/04/30 00:33:13;;;;;;;9.80;7.30;;;;;;;8.73;62.71;102760.69;5031795;28;20037;-63
2022/04/30 00:35:40;;;;;;;10.00;7.43;;;;;;;8.62;62.77;102763.63;5030960;28;20025;-63
2022/04/30 00:38:06;;;;;;;9.52;7.45;;;;;;;8.61;63.20;102767.19;5031674;28;20393;-63
2022/04/30 00:40:32;;;;;;;11.57;7.28;;;;;;;8.52;63.33;102759.44;5031082;28;20021;-63
2022/04/30 00:42:57;;;;;;;10.07;6.72;;;;;;;8.54;63.41;102762.94;5031714;28;20393;-63
2022/04/30 00:45:24;;;;;;;9.82;7.05;;;;;;;8.50;63.39;102759.50;5046679;28;20491;-63
2022/04/30 00:47:49;;;;;;;7.60;6.53;;;;;;;8.52;63.33;102757.66;5013532;28;20029;-63
2022/04/30 00:50:16;;;;;;;9.70;6.43;;;;;;;8.48;63.66;102742.75;5046211;28;20033;-63
2022/04/30 00:52:46;;;;;;;8.18;6.82;;;;;;;8.53;63.29;102754.13;5031399;28;20036;-63
2022/04/30 00:55:19;;;;;;;8.68;6.95;;;;;;;8.54;63.34;102744.38;5031184;28;20021;-63
2022/04/30 00:57:45;;;;;;;8.85;6.45;;;;;;;8.41;63.65;102744.66;5046304;28;20040;-63
2022/04/30 01:00:12;;;;;;;9.15;6.88;;;;;;;8.36;63.85;102741.22;5046441;28;20477;-63
2022/04/30 01:02:38;;;;;;;10.00;6.75;;;;;;;8.27;64.35;102740.56;5046554;28;20033;-63
2022/04/30 01:05:05;;;;;;;7.75;6.38;;;;;;;8.16;64.59;102740.78;5030818;28;20021;-63
2022/04/30 01:07:31;;;;;;;7.47;6.78;;;;;;;8.07;64.91;102725.09;5029098;28;20048;-63
2022/04/30 01:09:57;;;;;;;11.02;7.10;;;;;;;8.08;64.99;102743.59;5030959;28;20021;-63
2022/04/30 01:12:23;;;;;;;7.47;6.68;;;;;;;8.02;65.37;102733.13;5029888;28;20033;-63
2022/04/30 01:14:54;;;;;;;8.93;7.53;;;;;;;8.00;65.27;102742.03;5030956;28;20025;-63
2022/04/30 01:17:20;;;;;;;9.52;7.30;;;;;;;8.00;65.30;102742.03;5031156;28;20192;-63
2022/04/30 01:19:47;;;;;;;12.77;7.43;;;;;;;7.92;65.46;102727.19;5045576;28;20072;-63
2022/04/30 01:22:20;;;;;;;9.40;6.78;;;;;;;7.98;65.57;102742.06;5031419;28;20045;-63
2022/04/30 01:24:46;;;;;;;12.40;7.40;;;;;;;7.86;66.14;102731.75;5045884;28;20385;-63
2022/04/30 01:27:13;;;;;;;11.15;6.75;;;;;;;7.89;65.78;102736.97;5031119;28;20026;-63
2022/04/30 01:29:39;;;;;;;11.25;7.05;;;;;;;7.83;66.21;102737.13;5030485;28;20411;-63
2022/04/30 01:37:36;;;;;;;11.70;7.45;;;;;;;7.90;66.22;102721.03;5043931;28;20099;-63
2022/04/30 01:40:09;;;;;;;11.82;7.50;;;;;;;7.95;66.24;102729.75;5030821;28;20389;-63
2022/04/30 01:42:47;;;;;;;11.35;7.43;;;;;;;7.90;66.41;102730.75;5030973;28;20025;-63
2022/04/30 01:45:14;;;;;;;10.48;6.82;;;;;;;7.90;66.25;102730.75;5046116;28;20053;-63
2022/04/30 01:47:43;;;;;;;11.57;7.97;;;;;;;7.90;66.32;102731.63;5050729;28;20029;-63
2022/04/30 01:50:08;;;;;;;8.37;7.20;;;;;;;7.89;66.83;102729.03;5061186;28;20072;-63
2022/04/30 01:52:35;;;;;;;9.50;7.75;;;;;;;7.84;66.72;102720.31;5045903;28;20307;-63
2022/04/30 01:55:01;;;;;;;10.02;7.10;;;;;;;7.90;66.66;102730.75;5030797;28;20124;-63
2022/04/30 01:57:28;;;;;;;13.93;7.65;;;;;;;7.84;66.76;102726.47;5030075;28;20033;-63
2022/04/30 01:59:54;;;;;;;9.35;7.13;;;;;;;7.75;67.39;102716.06;5030475;28;20112;-63
2022/04/30 02:02:23;;;;;;;10.90;7.90;;;;;;;7.85;66.94;102716.75;5030366;28;20033;-63
2022/04/30 02:04:51;;;;;;;8.50;7.53;;;;;;;7.77;67.07;102716.06;5029994;28;20057;-63
2022/04/30 02:07:17;;;;;;;9.70;7.70;;;;;;;7.68;67.19;102701.22;5045889;28;20033;-63
2022/04/30 02:09:44;;;;;;;12.93;8.10;;;;;;;7.79;67.17;102714.22;5030409;28;20029;-63
2022/04/30 02:12:10;;;;;;;13.82;8.32;;;;;;;7.77;67.17;102706.31;5045737;28;20033;-63
2022/04/30 02:14:39;;;;;;;13.20;8.38;;;;;;;7.75;66.81;102708.13;5045403;28;20052;-63
2022/04/30 02:17:06;;;;;;;8.95;7.60;;;;;;;7.70;67.34;102715.28;5031136;28;20033;-63
2022/04/30 02:20:18;;;;;;;10.95;8.50;;;;;;;7.63;67.55;102711.91;5033503;28;20362;-63
2022/04/30 02:22:21;;;;;;;9.43;7.90;;;;;;;7.63;67.38;102705.75;5033785;28;20528;-63
2022/04/30 02:24:48;;;;;;;12.50;8.13;;;;;;;7.60;67.37;102705.81;5033635;28;20026;-64
2022/04/30 02:27:14;;;;;;;12.02;8.20;;;;;;;7.61;67.66;102710.19;5034242;28;20072;-63
2022/04/30 02:29:40;;;;;;;11.77;8.48;;;;;;;7.53;67.76;102704.16;5032292;28;20515;-63
2022/04/30 02:32:07;;;;;;;11.57;8.27;;;;;;;7.58;67.42;102708.47;5034149;28;20022;-63
2022/04/30 02:34:35;;;;;;;13.85;9.43;;;;;;;7.43;67.84;102704.34;5048383;28;20124;-63
2022/04/30 02:37:03;;;;;;;9.85;8.20;;;;;;;7.43;68.02;102706.13;5032572;28;20029;-63
2022/04/30 02:39:30;;;;;;;10.80;8.43;;;;;;;7.28;68.13;102692.31;5049144;28;20029;-63
2022/04/30 02:41:56;;;;;;;11.27;8.52;;;;;;;7.34;68.63;102701.03;5033972;28;20639;-63
2022/04/30 02:44:25;;;;;;;11.15;9.70;;;;;;;7.29;68.62;102701.09;5032387;28;20124;-63
2022/04/30 02:46:52;;;;;;;12.45;8.80;;;;;;;7.34;68.61;102696.59;5032431;28;20029;-63
2022/04/30 02:49:19;;;;;;;13.02;9.07;;;;;;;7.32;68.47;102698.41;5031914;28;20499;-63
2022/04/30 02:51:44;;;;;;;12.18;9.18;;;;;;;7.36;68.66;102693.94;5032122;28;20048;-63
2022/04/30 02:54:09;;;;;;;16.45;9.13;;;;;;;7.27;68.54;102692.34;5032204;28;20400;-63
2022/04/30 02:56:35;;;;;;;12.55;9.32;;;;;;;7.37;68.32;102699.19;5031941;28;20408;-63
2022/04/30 03:01:46;;;;;;;11.15;8.68;;;;;;;7.17;69.10;102690.75;5053262;28;20040;-63
2022/04/30 03:04:11;;;;;;;11.27;8.90;;;;;;;7.17;69.00;102694.28;5052657;28;20377;-63
2022/04/30 03:06:37;;;;;;;14.18;9.63;;;;;;;7.16;69.11;102695.19;5061219;28;20041;-63
2022/04/30 03:09:03;;;;;;;13.45;9.77;;;;;;;7.07;69.29;102695.38;5032998;28;20038;-63
2022/04/30 03:11:31;;;;;;;11.95;9.30;;;;;;;7.06;69.20;102701.56;5033307;28;20033;-63
2022/04/30 03:14:00;;;;;;;11.65;9.40;;;;;;;7.04;69.34;102690.13;5048389;28;20499;-63
2022/04/30 03:21:54;;;;;;;12.82;9.43;;;;;;;7.13;68.69;102689.97;5032045;28;20527;-63
2022/04/30 03:24:19;;;;;;;11.20;9.43;;;;;;;7.09;69.31;102690.03;5032873;28;20037;-63
2022/04/30 03:26:47;;;;;;;14.60;9.52;;;;;;;7.13;68.90;102694.38;5031463;28;20138;-63
2022/04/30 03:29:15;;;;;;;13.18;9.60;;;;;;;7.00;69.40;102691.06;5031692;28;20385;-63
2022/04/30 03:31:42;;;;;;;11.80;10.00;;;;;;;7.05;69.28;102684.78;5032702;28;20072;-63
2022/04/30 03:34:09;;;;;;;11.18;10.00;;;;;;;7.09;69.09;102682.09;5031896;28;20472;-63
2022/04/30 03:36:35;;;;;;;11.30;10.00;;;;;;;7.09;68.80;102677.69;5032882;28;20034;-63
2022/04/30 03:39:02;;;;;;;15.07;10.32;;;;;;;6.95;68.82;102664.72;5032078;28;20476;-63
2022/04/30 03:41:28;;;;;;;12.57;9.98;;;;;;;7.03;68.68;102678.69;5032957;28;20499;-63
2022/04/30 03:43:54;;;;;;;14.20;10.00;;;;;;;7.05;68.92;102671.56;5032189;28;20058;-63
2022/04/30 03:46:21;;;;;;;14.70;9.93;;;;;;;7.04;68.91;102663.69;5047889;28;20041;-63
2022/04/30 03:48:53;;;;;;;12.85;9.90;;;;;;;6.96;68.55;102666.47;5035971;28;20080;-63
2022/04/30 03:51:18;;;;;;;15.85;11.35;;;;;;;6.80;68.83;102634.16;5047231;28;20025;-63
2022/04/30 03:53:44;;;;;;;13.60;10.43;;;;;;;6.95;68.99;102672.66;5032210;28;20033;-63
2022/04/30 03:56:10;;;;;;;16.42;10.75;;;;;;;6.93;69.18;102671.81;5031202;28;20033;-63
2022/04/30 03:58:37;;;;;;;16.55;10.52;;;;;;;6.85;69.17;102676.34;5047460;28;20040;-63
2022/04/30 04:01:02;;;;;;;14.30;10.75;;;;;;;6.81;68.63;102667.59;5047576;28;20477;-63
2022/04/30 04:03:28;;;;;;;12.07;9.95;;;;;;;6.88;69.12;102680.72;5047534;28;20058;-63
2022/04/30 04:05:53;;;;;;;13.23;10.75;;;;;;;6.81;68.50;102666.75;5030605;28;20087;-63
2022/04/30 04:08:20;;;;;;;11.50;10.30;;;;;;;6.87;68.95;102673.69;5047470;28;20604;-63
2022/04/30 04:10:46;;;;;;;14.10;10.45;;;;;;;6.81;68.94;102669.38;5046963;28;20033;-63
2022/04/30 04:18:40;;;;;;;13.40;10.50;;;;;;;6.77;68.94;102679.16;5031499;28;20048;-63
2022/04/30 04:21:07;;;;;;;13.40;11.13;;;;;;;6.75;68.87;102677.44;5046937;28;20474;-63
2022/04/30 04:25:58;;;;;;;18.15;11.10;;;;;;;6.61;69.63;102682.94;5046893;28;20033;-63
2022/04/30 04:26:19;;;;;;;15.55;11.48;;;;;;;6.64;70.09;102684.66;5031789;28;20041;-63
2022/04/30 04:28:45;;;;;;;13.43;10.73;;;;;;;6.62;69.42;102682.06;5031553;28;20071;-63
2022/04/30 04:31:11;;;;;;;15.63;11.82;;;;;;;6.62;69.93;102674.13;5030009;28;20108;-63
2022/04/30 04:33:37;;;;;;;12.80;11.10;;;;;;;6.65;68.98;102678.47;5046516;28;20460;-63
2022/04/30 04:36:03;;;;;;;14.13;11.10;;;;;;;6.65;69.13;102689.06;5030322;28;20057;-63
2022/04/30 04:38:30;;;;;;;16.05;10.73;;;;;;;6.59;69.42;102682.13;5031361;28;20103;-63
2022/04/30 04:40:56;;;;;;;14.45;11.50;;;;;;;6.63;69.57;102677.66;5030190;28;20034;-63
2022/04/30 04:43:21;;;;;;;14.55;11.35;;;;;;;6.54;70.01;102674.25;5029954;28;20451;-62
2022/04/30 04:45:46;;;;;;;13.15;11.75;;;;;;;6.53;70.06;102688.38;5046236;28;20039;-63
2022/04/30 04:48:12;;;;;;;16.27;11.88;;;;;;;6.58;69.73;102686.50;5030228;28;20060;-63
2022/04/30 04:50:39;;;;;;;13.15;11.75;;;;;;;6.62;70.25;102690.00;5029307;28;20452;-63
2022/04/30 04:53:04;;;;;;;13.68;11.30;;;;;;;6.62;70.83;102691.75;5029485;28;20464;-63
2022/04/30 04:55:31;;;;;;;13.65;11.68;;;;;;;6.65;70.09;102697.88;5031041;28;20021;-63
2022/04/30 04:57:57;;;;;;;19.38;12.30;;;;;;;6.66;70.68;102706.69;5031543;28;20116;-63
2022/04/30 05:00:22;;;;;;;16.75;11.85;;;;;;;6.70;70.19;102700.44;5030843;28;20425;-63
2022/04/30 05:02:48;;;;;;;16.30;11.60;;;;;;;6.69;71.27;102710.13;5030724;28;20025;-63
2022/04/30 05:05:14;;;;;;;15.48;11.70;;;;;;;6.74;71.15;102710.94;5045743;28;20041;-63
2022/04/30 05:07:39;;;;;;;14.63;12.68;;;;;;;6.73;71.60;102705.66;5030242;28;20029;-63
2022/04/30 05:10:06;;;;;;;18.05;12.38;;;;;;;6.71;71.94;102718.06;5030811;28;20036;-63
2022/04/30 05:12:32;;;;;;;15.15;12.45;;;;;;;6.75;71.37;102720.59;5030980;28;20021;-63
2022/04/30 05:14:58;;;;;;;18.17;12.55;;;;;;;6.68;71.78;102711.03;5030442;28;20507;-63
2022/04/30 05:17:23;;;;;;;16.33;12.10;;;;;;;6.70;72.30;102717.16;5030179;28;20048;-63
2022/04/30 05:19:48;;;;;;;18.25;12.43;;;;;;;6.72;72.17;102718.03;5045693;28;20037;-63
2022/04/30 05:22:18;;;;;;;18.45;12.40;;;;;;;6.80;72.60;102717.91;5046279;28;20558;-63
2022/04/30 05:24:44;;;;;;;16.45;13.00;;;;;;;6.81;72.25;102706.41;5030454;28;20037;-63
2022/04/30 05:27:09;;;;;;;18.77;12.77;;;;;;;6.87;72.31;102716.88;5029745;28;20037;-62
2022/04/30 05:29:37;;;;;;;19.70;12.98;;;;;;;6.91;72.21;102713.31;5039558;28;20392;-63
2022/04/30 05:32:04;;;;;;;18.02;13.40;;;;;;;6.98;72.21;102714.06;5066230;28;20029;-63
2022/04/30 05:34:34;;;;;;;19.10;14.77;;;;;;;7.13;72.50;102723.50;5041561;28;20033;-63
2022/04/30 05:37:00;;;;;;;19.13;12.90;;;;;;;7.13;71.67;102719.06;5065838;28;20083;-63
2022/04/30 05:39:26;;;;;;;16.23;13.52;;;;;;;7.17;72.15;102719.88;5049510;28;20387;-62
2022/04/30 05:41:56;;;;;;;20.80;14.35;;;;;;;7.17;72.51;102723.38;5045969;28;20033;-63
2022/04/30 05:44:23;;;;;;;19.20;14.30;;;;;;;7.27;71.68;102722.31;5030291;28;20086;-62
2022/04/30 05:46:50;;;;;;;17.33;13.57;;;;;;;7.31;71.81;102715.19;5029233;28;20090;-62
2022/04/30 05:49:16;;;;;;;18.27;13.73;;;;;;;7.28;72.69;102720.53;5030284;28;20117;-63
2022/04/30 05:51:42;;;;;;;17.98;13.02;;;;;;;7.35;71.95;102718.66;5045782;28;20104;-63
2022/04/30 05:54:07;;;;;;;17.90;13.50;;;;;;;7.42;71.98;102721.16;5016866;28;20029;-63
2022/04/30 05:56:34;;;;;;;18.98;13.90;;;;;;;7.50;71.83;102723.66;5034179;28;20040;-63
2022/04/30 05:59:03;;;;;;;16.88;13.20;;;;;;;7.58;71.95;102723.50;5049608;28;20049;-63
2022/04/30 06:01:29;;;;;;;18.90;12.45;;;;;;;7.65;72.20;102727.78;5034691;28;20041;-63
2022/04/30 06:03:55;;;;;;;20.98;13.52;;;;;;;7.76;71.75;102727.53;5049177;28;20029;-63
2022/04/30 06:06:21;;;;;;;14.63;13.02;;;;;;;7.72;71.85;102730.25;5034217;28;20061;-63
2022/04/30 06:08:49;;;;;;;16.67;12.95;;;;;;;7.85;71.29;102724.69;5032980;28;20495;-63
2022/04/30 06:11:15;;;;;;;20.10;13.25;;;;;;;7.87;71.16;102720.25;5034397;28;20049;-63
2022/04/30 06:13:40;;;;;;;20.13;13.43;;;;;;;8.01;71.30;102733.19;5033715;28;20040;-63
2022/04/30 06:16:06;;;;;;;18.25;13.45;;;;;;;8.15;70.99;102731.97;5034049;28;20067;-63
2022/04/30 06:18:31;;;;;;;19.63;12.68;;;;;;;8.12;70.88;102720.59;5016019;28;20124;-63
2022/04/30 06:20:57;;;;;;;21.67;13.85;;;;;;;8.24;70.33;102727.38;5033691;28;20033;-62
2022/04/30 06:23:22;;;;;;;19.10;12.75;;;;;;;8.37;70.60;102731.47;5034138;28;20037;-62
2022/04/30 06:25:51;;;;;;;19.70;12.38;;;;;;;8.40;70.63;102729.66;5033880;28;20423;-63
2022/04/30 06:28:17;;;;;;;15.25;12.20;;;;;;;8.56;70.27;102740.78;5048826;28;20021;-63
2022/04/30 06:30:42;;;;;;;15.98;12.30;;;;;;;8.57;69.85;102739.00;5049150;28;20029;-63
2022/04/30 06:33:11;;;;;;;15.27;13.07;;;;;;;8.67;69.68;102737.84;5032630;28;20150;-63
2022/04/30 06:35:37;;;;;;;16.33;12.48;;;;;;;8.81;69.32;102734.84;5033335;28;20028;-63
2022/04/30 06:38:04;;;;;;;16.20;12.68;;;;;;;8.92;69.25;102740.78;5032287;28;20029;-63
2022/04/30 06:40:31;;;;;;;18.10;11.45;;;;;;;8.96;68.62;102729.16;5048961;28;20100;-63
2022/04/30 06:42:57;;;;;;;18.90;11.82;;;;;;;8.99;68.67;102736.16;5032409;28;20076;-63
2022/04/30 06:45:22;;;;;;;19.13;12.68;;;;;;;9.03;68.55;102727.19;5032405;28;20021;-63
2022/04/30 06:47:47;;;;;;;14.65;11.00;;;;;;;9.00;68.86;102735.25;5033158;28;20029;-63
2022/04/30 06:50:13;;;;;;;16.92;11.68;;;;;;;9.10;68.56;102732.31;5032946;28;20021;-63
2022/04/30 06:58:06;;;;;;;16.15;11.55;;;;;;;9.60;66.74;102731.84;5046700;28;20045;-63
2022/04/30 07:03:16;;;;;;;22.77;11.95;;;;;;;9.67;66.75;102730.72;5033065;28;20138;-63
2022/04/30 07:05:42;;;;;;;21.13;10.60;;;;;;;9.76;66.69;102730.50;5030894;28;20499;-63
2022/04/30 07:08:08;;;;;;;12.93;10.82;;;;;;;9.95;65.89;102732.59;5032092;28;20030;-63
2022/04/30 07:10:34;;;;;;;14.75;10.52;;;;;;;10.08;65.32;102735.75;5032799;28;20116;-63
2022/04/30 07:13:00;;;;;;;13.55;10.23;;;;;;;10.20;64.88;102727.38;5037545;28;20021;-63
2022/04/30 07:15:25;;;;;;;17.70;10.32;;;;;;;10.21;64.68;102737.13;5048578;28;20057;-63
2022/04/30 07:17:51;;;;;;;12.57;9.45;;;;;;;10.28;63.93;102736.03;5032900;28;20116;-63
2022/04/30 07:20:16;;;;;;;11.77;10.32;;;;;;;10.36;64.65;102733.13;5031162;28;20026;-63
2022/04/30 07:22:42;;;;;;;12.02;10.35;;;;;;;10.55;63.43;102728.09;5047872;28;20077;-63
2022/04/30 07:25:08;;;;;;;18.73;10.10;;;;;;;10.69;63.39;102741.81;5032360;28;20041;-63
2022/04/30 07:27:34;;;;;;;13.02;9.55;;;;;;;10.70;63.05;102740.88;5048288;28;20033;-63
2022/04/30 07:30:01;;;;;;;13.68;9.60;;;;;;;10.78;62.63;102733.50;5033040;28;20083;-63
2022/04/30 07:32:28;;;;;;;10.70;8.77;;;;;;;10.89;62.50;102742.00;5031558;28;20728;-63
2022/04/30 07:34:54;;;;;;;10.38;8.73;;;;;;;10.97;62.22;102730.22;5047572;28;20037;-63
2022/04/30 07:37:20;;;;;;;14.75;8.70;;;;;;;11.16;60.93;102727.81;5032912;28;20461;-63
2022/04/30 07:39:45;;;;;;;11.52;8.57;;;;;;;11.09;60.50;102713.84;5047602;28;20036;-63
2022/04/30 07:42:11;;;;;;;10.38;8.40;;;;;;;11.27;60.80;102728.31;5032317;28;20025;-63
2022/04/30 07:44:37;;;;;;;11.63;8.15;;;;;;;11.41;60.35;102725.97;5031179;28;20695;-63
2022/04/30 07:47:03;;;;;;;11.68;8.95;;;;;;;11.38;60.24;102720.75;5032275;28;20122;-63
2022/04/30 07:49:28;;;;;;;12.02;8.63;;;;;;;11.30;60.42;102718.41;5032088;28;20045;-64
2022/04/30 07:51:55;;;;;;;11.45;8.05;;;;;;;11.17;60.26;102724.22;5047602;28;20472;-64
2022/04/30 07:54:24;;;;;;;10.13;8.02;;;;;;;11.43;60.93;102721.47;5046899;28;20037;-63
2022/04/30 07:56:57;;;;;;;12.38;8.75;;;;;;;11.70;59.39;102714.25;5047648;28;20030;-63
2022/04/30 07:59:25;;;;;;;11.80;8.55;;;;;;;11.79;59.23;102721.03;5032099;28;20099;-63
2022/04/30 08:01:51;;;;;;;8.98;7.70;;;;;;;12.00;58.48;102722.91;5047280;28;20025;-63
2022/04/30 08:04:16;;;;;;;8.10;7.40;;;;;;;12.06;58.92;102721.81;5031429;28;20541;-63
2022/04/30 08:06:42;;;;;;;11.75;8.48;;;;;;;12.18;58.35;102721.31;5047523;28;20021;-64
2022/04/30 08:09:08;;;;;;;11.88;7.80;;;;;;;12.20;57.93;102715.91;5046992;28;20037;-63
2022/04/30 08:11:33;;;;;;;8.88;7.97;;;;;;;12.01;57.41;102718.44;5032285;28;20025;-63
2022/04/30 08:13:58;;;;;;;10.80;7.65;;;;;;;11.99;58.54;102713.16;5030454;28;20503;-63
2022/04/30 08:16:24;;;;;;;8.13;7.30;;;;;;;11.79;58.03;102718.34;5031803;28;20025;-64
2022/04/30 08:18:50;;;;;;;7.95;7.15;;;;;;;11.73;58.95;102713.25;5031313;28;20032;-64
2022/04/30 08:21:18;;;;;;;10.85;7.13;;;;;;;11.86;58.22;102706.59;5031933;28;20048;-63
2022/04/30 08:23:43;;;;;;;12.55;7.53;;;;;;;11.99;58.62;102714.97;5031464;28;20029;-63
2022/04/30 08:26:08;;;;;;;13.50;7.82;;;;;;;12.04;58.01;102700.53;5046710;28;20040;-64
2022/04/30 08:28:34;;;;;;;9.45;7.03;;;;;;;12.24;57.37;102706.88;5029114;28;20032;-63
2022/04/30 08:31:00;;;;;;;14.85;7.03;;;;;;;12.38;56.97;102714.28;5047164;28;20419;-64
2022/04/30 08:33:26;;;;;;;9.50;6.88;;;;;;;12.33;56.31;102713.63;5030566;28;20424;-63
2022/04/30 08:35:51;;;;;;;7.18;6.43;;;;;;;12.12;55.58;102707.34;5046095;28;20104;-63
2022/04/30 08:38:19;;;;;;;10.82;6.10;;;;;;;11.79;56.61;102711.25;5030032;28;20025;-63
2022/04/30 08:40:45;;;;;;;10.82;6.10;;;;;;;11.55;57.24;102714.81;5046759;28;20554;-63
2022/04/30 08:43:14;;;;;;;11.38;6.93;;;;;;;11.41;58.04;102712.66;5031441;28;20128;-64
2022/04/30 08:45:42;;;;;;;10.27;6.47;;;;;;;11.36;58.37;102704.00;5031007;28;20022;-63
2022/04/30 08:48:13;;;;;;;10.27;7.10;;;;;;;11.28;59.07;102703.38;5031269;28;20587;-64
2022/04/30 08:50:42;;;;;;;12.25;7.20;;;;;;;11.20;59.05;102700.13;5030845;28;20064;-64
2022/04/30 08:53:08;;;;;;;9.55;6.72;;;;;;;11.19;59.54;102690.41;5030867;28;20034;-64
2022/04/30 08:55:34;;;;;;;11.98;6.35;;;;;;;11.14;59.80;102693.22;5031057;28;20037;-64
2022/04/30 08:58:00;;;;;;;7.63;6.65;;;;;;;11.18;59.93;102696.63;5045985;28;20469;-63
2022/04/30 09:00:26;;;;;;;10.50;7.30;;;;;;;11.19;59.93;102693.06;5030845;28;20029;-63
2022/04/30 09:02:55;;;;;;;9.80;7.22;;;;;;;11.20;59.68;102694.78;5031229;28;20380;-64
2022/04/30 09:05:22;;;;;;;11.40;6.65;;;;;;;11.34;59.71;102692.50;5030294;28;20079;-63
2022/04/30 09:07:55;;;;;;;14.50;7.20;;;;;;;11.29;59.50;102682.00;5046184;28;20033;-64
2022/04/30 09:10:26;;;;;;;9.45;7.40;;;;;;;11.47;59.71;102684.91;5030574;28;20061;-63
2022/04/30 09:12:52;;;;;;;8.95;7.57;;;;;;;11.55;59.86;102688.19;5031233;28;20044;-63
2022/04/30 09:15:18;;;;;;;11.38;7.88;;;;;;;11.66;59.10;102696.63;5031000;28;20116;-64
2022/04/30 09:17:58;;;;;;;14.90;7.45;;;;;;;11.77;59.01;102688.25;5046171;28;20040;-64
2022/04/30 09:20:23;;;;;;;11.25;6.97;;;;;;;11.81;57.56;102687.19;5030570;28;20031;-64
2022/04/30 09:22:49;;;;;;;11.13;6.25;;;;;;;11.86;57.67;102697.72;5030075;28;20044;-64
2022/04/30 09:25:15;;;;;;;7.65;6.75;;;;;;;11.75;57.68;102664.28;5030962;28;20460;-64
2022/04/30 09:27:46;;;;;;;10.48;6.90;;;;;;;11.97;57.72;102690.16;5033286;28;20022;-63
2022/04/30 09:30:15;;;;;;;11.40;6.72;;;;;;;11.93;57.05;102686.72;5037998;28;20052;-64
2022/04/30 09:32:43;;;;;;;11.30;6.85;;;;;;;12.03;57.14;102687.25;5037234;28;20029;-64
2022/04/30 09:38:06;;;;;;;11.65;7.35;;;;;;;11.93;56.58;102677.88;5037789;28;20175;-64
2022/04/30 09:40:32;;;;;;;10.40;7.40;;;;;;;11.87;56.56;102680.78;5037188;28;20112;-64
2022/04/30 09:42:58;;;;;;;11.48;7.13;;;;;;;11.72;56.36;102674.22;5037158;28;20033;-64
2022/04/30 09:45:23;;;;;;;13.68;8.07;;;;;;;11.70;56.72;102679.59;5037630;28;20392;-63
2022/04/30 09:47:50;;;;;;;9.25;6.85;;;;;;;11.71;56.96;102678.69;5037296;28;20116;-64
2022/04/30 09:55:53;;;;;;;11.18;6.63;;;;;;;12.04;56.84;102667.66;5045216;28;20034;-64
2022/04/30 09:58:24;;;;;;;7.57;6.30;;;;;;;12.17;54.50;102660.03;5037435;28;20053;-64
2022/04/30 10:00:55;;;;;;;10.98;6.68;;;;;;;12.43;53.93;102654.47;5052612;28;20061;-64
2022/04/30 10:03:30;;;;;;;11.98;6.68;;;;;;;12.53;53.18;102656.75;5037015;28;20028;-64
2022/04/30 10:06:04;;;;;;;12.45;6.50;;;;;;;12.62;52.87;102662.59;5036837;28;20417;-64
2022/04/30 10:08:35;;;;;;;9.80;7.07;;;;;;;12.63;52.55;102658.97;5037328;28;20038;-63
2022/04/30 10:11:21;;;;;;;7.43;6.60;;;;;;;12.72;52.42;102660.38;5037160;28;20021;-64
2022/04/30 10:14:15;;;;;;;10.30;6.38;;;;;;;12.73;52.33;102648.75;5045505;28;20147;-64
2022/04/30 10:17:07;;;;;;;7.78;6.00;;;;;;;12.80;51.13;102647.59;5037195;28;20098;-64
2022/04/30 10:19:28;;;;;;;6.75;5.68;;;;;;;12.93;50.52;102642.56;5036411;28;20037;-63
2022/04/30 10:22:11;;;;;;;8.40;6.05;;;;;;;13.00;49.56;102645.81;5052057;28;20115;-64
2022/04/30 10:24:47;;;;;;;9.52;5.65;;;;;;;13.00;49.81;102641.38;5036403;28;20022;-64
2022/04/30 10:27:14;;;;;;;9.02;6.03;;;;;;;12.95;50.13;102638.88;5037175;28;20117;-64
2022/04/30 10:29:59;;;;;;;8.60;5.82;;;;;;;13.04;49.52;102636.75;5036814;28;20075;-64
2022/04/30 10:32:32;;;;;;;7.13;6.05;;;;;;;12.98;49.24;102640.56;5037184;28;20068;-64
2022/04/30 10:34:59;;;;;;;8.98;6.05;;;;;;;12.99;49.54;102626.25;5035924;28;20033;-64
2022/04/30 10:37:35;;;;;;;5.80;5.28;;;;;;;13.04;48.59;102644.75;5037078;28;20029;-64
2022/04/30 10:40:02;;;;;;;6.53;4.82;;;;;;;13.05;48.00;102630.47;5033701;28;20018;-64
2022/04/30 10:42:42;;;;;;;6.05;5.20;;;;;;;13.09;47.22;102634.75;5034223;28;20128;-64
2022/04/30 10:45:16;;;;;;;5.95;5.28;;;;;;;13.26;47.56;102626.84;5033200;28;20037;-64
2022/04/30 10:47:51;;;;;;;6.13;5.00;;;;;;;13.31;46.73;102618.63;5031622;28;20025;-64
2022/04/30 10:50:16;;;;;;;4.70;4.05;;;;;;;13.34;45.36;102621.16;5048097;28;20031;-64
2022/04/30 10:52:45;;;;;;;5.22;3.92;;;;;;;13.33;46.19;102620.28;5049114;28;20124;-64
2022/04/30 10:55:11;;;;;;;4.47;4.05;;;;;;;13.55;45.55;102617.47;5033393;28;20087;-64
2022/04/30 10:57:41;;;;;;;6.63;4.55;;;;;;;13.83;43.89;102610.81;5033242;28;20103;-64
2022/04/30 11:00:08;;;;;;;7.93;4.60;;;;;;;14.35;43.95;102615.38;5032986;28;20458;-64
2022/04/30 11:02:36;;;;;;;5.65;3.85;;;;;;;14.72;41.96;102601.88;5033167;28;20033;-64
2022/04/30 11:05:02;;;;;;;5.80;3.50;;;;;;;15.12;42.01;102601.56;5032707;28;20037;-64
2022/04/30 11:07:29;;;;;;;5.13;3.88;;;;;;;15.32;39.77;102601.31;5048513;28;20079;-64
2022/04/30 11:09:55;;;;;;;6.15;3.35;;;;;;;15.81;39.84;102597.75;5048390;28;20017;-64
2022/04/30 11:12:26;;;;;;;5.00;3.60;;;;;;;16.16;38.49;102590.34;5048627;28;20061;-64
2022/04/30 11:14:54;;;;;;;5.70;3.92;;;;;;;16.22;38.80;102597.19;5032938;28;20037;-64
2022/04/30 11:17:20;;;;;;;4.45;3.78;;;;;;;16.56;38.28;102587.97;5047894;28;20083;-64
2022/04/30 11:19:45;;;;;;;5.20;3.55;;;;;;;16.75;37.50;102583.19;5032486;28;20041;-64
2022/04/30 11:22:14;;;;;;;4.88;3.90;;;;;;;16.63;38.10;102586.63;5031624;28;20128;-64
2022/04/30 11:24:41;;;;;;;6.57;4.28;;;;;;;16.85;38.19;102580.81;5032938;28;20490;-64
2022/04/30 11:27:09;;;;;;;5.15;3.90;;;;;;;16.94;37.61;102576.72;5032712;28;20029;-64
2022/04/30 11:29:47;;;;;;;7.53;4.00;;;;;;;17.24;36.96;102577.47;5032467;28;20472;-64
2022/04/30 11:32:20;;;;;;;7.00;3.95;;;;;;;17.35;36.89;102570.53;5032675;28;20544;-64
2022/04/30 11:34:46;;;;;;;6.30;3.83;;;;;;;17.88;35.37;102568.88;5047705;28;20029;-65
2022/04/30 11:37:12;;;;;;;6.90;3.80;;;;;;;18.26;34.55;102568.16;5032666;28;20469;-64
2022/04/30 11:39:38;;;;;;;6.93;3.85;;;;;;;18.82;33.17;102557.97;5032158;28;20052;-64
2022/04/30 11:42:07;;;;;;;4.97;3.60;;;;;;;19.37;32.26;102561.25;5048070;28;20029;-64
2022/04/30 11:44:32;;;;;;;6.57;3.65;;;;;;;19.35;31.20;102557.78;5032458;28;20021;-64
2022/04/30 11:46:58;;;;;;;4.70;3.38;;;;;;;18.98;31.44;102561.31;5047608;28;20079;-64
2022/04/30 11:49:27;;;;;;;5.70;3.60;;;;;;;18.44;32.83;102552.53;5030240;28;20091;-64
2022/04/30 11:51:55;;;;;;;6.80;3.58;;;;;;;17.68;34.31;102562.13;5032037;28;20104;-64
2022/04/30 11:54:24;;;;;;;7.47;4.47;;;;;;;16.96;35.30;102566.72;5032086;28;20083;-64
2022/04/30 11:56:50;;;;;;;6.28;4.93;;;;;;;16.28;38.74;102561.91;5047648;28;20029;-64
2022/04/30 11:59:27;;;;;;;8.82;5.80;;;;;;;15.77;40.76;102569.38;5031660;28;20571;-64